createdAt,value
2023-04-28T00:00:06.034Z,100013.38
2023-04-28T00:02:34.879Z,100015.97
2023-04-28T00:05:05.331Z,100015.41
2023-04-28T00:07:37.740Z,100017.94
2023-04-28T00:10:09.720Z,100021.88
2023-04-28T00:12:38.215Z,100015.63
2023-04-28T00:15:06.495Z,100010.38
2023-04-28T00:17:34.668Z,100017.50
2023-04-28T00:20:03.508Z,100017.19
2023-04-28T00:22:31.856Z,100017.31
2023-04-28T00:25:00.017Z,100009.84
2023-04-28T00:27:28.113Z,100015.25
2023-04-28T00:29:56.175Z,100024.31
2023-04-28T00:32:24.586Z,100019.91
2023-04-28T00:34:54.966Z,100031.31
2023-04-28T00:37:23.096Z,100035.63
2023-04-28T00:39:55.660Z,100022.69
2023-04-28T00:42:24.225Z,100023.53
2023-04-28T00:44:52.890Z,100022.47
2023-04-28T00:47:21.429Z,100021.59
2023-04-28T00:49:52.798Z,100021.91
2023-04-28T00:52:21.113Z,100010.81
2023-04-28T00:54:49.192Z,100017.06
2023-04-28T00:57:17.618Z,100026.31
2023-04-28T00:59:46.149Z,100034.13
2023-04-28T01:02:17.986Z,100038.47
2023-04-28T01:04:46.838Z,100031.91
2023-04-28T01:07:15.672Z,100033.78
2023-04-28T01:09:44.373Z,100031.06
2023-04-28T01:12:15.169Z,100038.88
2023-04-28T01:14:43.520Z,100039.88
2023-04-28T01:17:12.390Z,100041.72
2023-04-28T01:19:41.258Z,100039.88
2023-04-28T01:22:14.347Z,100048.72
2023-04-28T01:24:42.852Z,100043.03
2023-04-28T01:27:11.753Z,100047.28
2023-04-28T01:29:41.613Z,100048.59
2023-04-28T01:32:09.711Z,100050.72
2023-04-28T01:34:41.275Z,100057.59
2023-04-28T01:37:09.509Z,100059.84
2023-04-28T01:39:37.830Z,100068.53
2023-04-28T01:42:06.131Z,100068.53
2023-04-28T01:44:34.309Z,100063.25
2023-04-28T01:47:02.338Z,100067.97
2023-04-28T01:49:31.723Z,100064.69
2023-04-28T01:51:59.730Z,100062.28
2023-04-28T01:54:30.469Z,100067.69
2023-04-28T01:56:58.887Z,100078.94
2023-04-28T01:59:30.045Z,100070.84
2023-04-28T02:01:58.217Z,100079.09
2023-04-28T02:04:26.792Z,100066.56
2023-04-28T02:06:55.380Z,100074.25
2023-04-28T02:09:23.784Z,100075.22
2023-04-28T02:11:54.181Z,100082.25
2023-04-28T02:14:22.497Z,100080.41
2023-04-28T02:16:51.167Z,100090.88
2023-04-28T02:19:19.602Z,100105.56
2023-04-28T02:21:47.520Z,100109.69
2023-04-28T02:24:15.834Z,100113.06
2023-04-28T02:26:44.198Z,100118.47
2023-04-28T02:29:12.611Z,100121.19
2023-04-28T02:31:40.824Z,100111.78
2023-04-28T02:34:08.995Z,100110.94
2023-04-28T02:36:37.318Z,100106.69
2023-04-28T02:39:05.313Z,100110.38
2023-04-28T02:41:38.682Z,100108.09
2023-04-28T02:44:06.597Z,100105.94
2023-04-28T02:46:34.737Z,100105.81
2023-04-28T02:49:03.226Z,100109.19
2023-04-28T02:51:32.065Z,100108.19
2023-04-28T02:54:00.382Z,100104.50
2023-04-28T02:56:30.217Z,100112.63
2023-04-28T02:58:58.448Z,100109.06
2023-04-28T03:01:27.320Z,100102.69
2023-04-28T03:03:55.706Z,100099.09
2023-04-28T03:06:23.869Z,100094.03
2023-04-28T03:08:52.122Z,100092.72
2023-04-28T03:11:20.464Z,100102.94
2023-04-28T03:13:48.601Z,100107.22
2023-04-28T03:16:16.962Z,100097.13
2023-04-28T03:18:45.120Z,100092.72
2023-04-28T03:21:13.279Z,100105.09
2023-04-28T03:23:41.805Z,100098.69
2023-04-28T03:26:09.685Z,100092.28
2023-04-28T03:28:38.781Z,100076.97
2023-04-28T03:31:07.344Z,100082.47
2023-04-28T03:33:37.481Z,100066.66
2023-04-28T03:36:06.081Z,100057.38
2023-04-28T03:38:34.140Z,100057.09
2023-04-28T03:41:02.076Z,100046.72
2023-04-28T03:43:30.251Z,100040.78
2023-04-28T03:45:58.416Z,100037.50
2023-04-28T03:48:26.470Z,100043.75
2023-04-28T03:50:57.816Z,100040.94
2023-04-28T03:53:25.829Z,100038.25
2023-04-28T03:55:53.903Z,100051.91
2023-04-28T03:58:22.064Z,100052.81
2023-04-28T04:00:50.062Z,100038.16
2023-04-28T04:03:18.381Z,100034.56
2023-04-28T04:06:11.812Z,100039.25
2023-04-28T04:08:40.966Z,100035.66
2023-04-28T04:11:12.510Z,100032.66
2023-04-28T04:13:40.617Z,100032.66
2023-04-28T04:16:08.802Z,100040.59
2023-04-28T04:18:37.039Z,100041.66
2023-04-28T04:21:05.246Z,100043.06
2023-04-28T04:23:35.916Z,100050.88
2023-04-28T04:26:04.152Z,100056.75
2023-04-28T04:28:32.124Z,100067.50
2023-04-28T04:31:00.427Z,100067.28
2023-04-28T04:33:29.264Z,100073.69
2023-04-28T04:35:57.632Z,100066.88
2023-04-28T04:38:25.733Z,100060.28
2023-04-28T04:40:54.755Z,100058.66
2023-04-28T04:43:22.779Z,100056.38
2023-04-28T04:45:53.793Z,100048.13
2023-04-28T04:48:21.683Z,100051.31
2023-04-28T04:50:50.223Z,100060.66
2023-04-28T04:53:18.443Z,100075.66
2023-04-28T04:55:46.554Z,100080.06
2023-04-28T04:58:14.814Z,100080.13
2023-04-28T05:00:42.826Z,100081.19
2023-04-28T05:03:14.934Z,100073.25
2023-04-28T05:05:44.935Z,100077.75
2023-04-28T05:08:14.257Z,100102.44
2023-04-28T05:10:42.753Z,100084.94
2023-04-28T05:13:11.194Z,100088.25
2023-04-28T05:15:39.667Z,100083.56
2023-04-28T05:18:11.306Z,100089.88
2023-04-28T05:20:39.491Z,100092.44
2023-04-28T05:23:07.720Z,100094.78
2023-04-28T05:25:35.565Z,100100.63
2023-04-28T05:28:09.157Z,100108.47
2023-04-28T05:30:36.997Z,100098.81
2023-04-28T05:33:05.066Z,100086.16
2023-04-28T05:35:33.808Z,100106.75
2023-04-28T05:38:04.173Z,100115.84
2023-04-28T05:40:32.448Z,100113.31
2023-04-28T05:43:01.759Z,100126.66
2023-04-28T05:45:30.152Z,100114.72
2023-04-28T05:48:01.629Z,100107.50
2023-04-28T05:50:30.281Z,100112.31
2023-04-28T05:52:58.548Z,100105.63
2023-04-28T05:55:30.313Z,100106.34
2023-04-28T05:58:02.995Z,100110.03
2023-04-28T06:00:31.108Z,100107.47
2023-04-28T06:02:59.835Z,100109.19
2023-04-28T06:05:28.460Z,100097.53
2023-04-28T06:07:56.766Z,100104.06
2023-04-28T06:10:29.737Z,100102.19
2023-04-28T06:12:57.833Z,100110.72
2023-04-28T06:15:25.777Z,100128.34
2023-04-28T06:17:54.455Z,100131.06
2023-04-28T06:20:22.352Z,100134.63
2023-04-28T06:22:50.441Z,100143.16
2023-04-28T06:25:18.552Z,100145.41
2023-04-28T06:28:13.814Z,100157.09
2023-04-28T06:30:41.906Z,100168.72
2023-04-28T06:33:14.319Z,100159.50
2023-04-28T06:35:42.638Z,100165.88
2023-04-28T06:38:11.045Z,100171.44
2023-04-28T06:40:41.060Z,100173.84
2023-04-28T06:43:09.084Z,100175.88
2023-04-28T06:45:37.432Z,100178.25
2023-04-28T06:48:06.743Z,100184.22
2023-04-28T06:50:35.318Z,100190.22
2023-04-28T06:53:03.465Z,100200.16
2023-04-28T06:55:32.130Z,100205.44
2023-04-28T06:58:00.391Z,100204.59
2023-04-28T07:00:28.726Z,100206.84
2023-04-28T07:02:59.913Z,100193.59
2023-04-28T07:05:28.218Z,100202.00
2023-04-28T07:07:56.228Z,100203.41
2023-04-28T07:10:24.473Z,100203.53
2023-04-28T07:12:52.788Z,100208.41
2023-04-28T07:15:24.355Z,100213.50
2023-04-28T07:18:01.797Z,100202.13
2023-04-28T07:20:30.599Z,100195.03
2023-04-28T07:22:59.236Z,100191.47
2023-04-28T07:25:30.685Z,100193.59
2023-04-28T07:28:03.326Z,100184.81
2023-04-28T07:30:31.447Z,100177.53
2023-04-28T07:32:59.760Z,100176.38
2023-04-28T07:35:28.125Z,100170.97
2023-04-28T07:37:56.714Z,100179.78
2023-04-28T07:40:26.687Z,100180.94
2023-04-28T07:42:54.738Z,100180.63
2023-04-28T07:45:22.700Z,100178.09
2023-04-28T07:47:50.664Z,100182.22
2023-04-28T07:50:18.850Z,100172.66
2023-04-28T07:52:46.835Z,100180.91
2023-04-28T07:55:15.042Z,100175.66
2023-04-28T07:57:45.832Z,100172.41
2023-04-28T08:00:14.475Z,100169.94
2023-04-28T08:02:42.653Z,100170.59
2023-04-28T08:05:11.097Z,100154.38
2023-04-28T08:07:41.817Z,100142.09
2023-04-28T08:10:12.350Z,100151.34
2023-04-28T08:12:41.295Z,100145.44
2023-04-28T08:15:10.974Z,100154.13
2023-04-28T08:17:39.409Z,100148.41
2023-04-28T08:20:08.082Z,100151.59
2023-04-28T08:22:36.585Z,100149.38
2023-04-28T08:25:04.888Z,100146.94
2023-04-28T08:27:34.414Z,100136.94
2023-04-28T08:30:02.989Z,100135.22
2023-04-28T08:32:31.492Z,100142.22
2023-04-28T08:34:59.623Z,100117.16
2023-04-28T08:37:28.357Z,100134.38
2023-04-28T08:40:02.655Z,100131.09
2023-04-28T08:42:34.454Z,100121.31
2023-04-28T08:45:04.584Z,100125.66
2023-04-28T08:47:37.209Z,100116.69
2023-04-28T08:50:07.239Z,100115.28
2023-04-28T08:52:36.173Z,100117.00
2023-04-28T08:55:11.772Z,100109.47
2023-04-28T08:57:45.914Z,100099.69
2023-04-28T09:00:16.276Z,100101.63
2023-04-28T09:02:44.576Z,100103.16
2023-04-28T09:05:14.899Z,100104.16
2023-04-28T09:07:46.483Z,100104.16
2023-04-28T09:10:21.906Z,100103.53
2023-04-28T09:12:55.047Z,100101.03
2023-04-28T09:15:41.476Z,100104.44
2023-04-28T09:18:16.290Z,100114.09
2023-04-28T09:20:45.297Z,100121.38
2023-04-28T09:23:17.799Z,100115.59
2023-04-28T09:26:10.235Z,100116.75
2023-04-28T09:28:38.145Z,100122.41
2023-04-28T09:31:06.196Z,100125.56
2023-04-28T09:33:34.796Z,100129.50
2023-04-28T09:36:02.810Z,100119.31
2023-04-28T09:38:30.938Z,100125.88
2023-04-28T09:41:01.361Z,100121.84
2023-04-28T09:43:31.501Z,100121.13
2023-04-28T09:46:02.700Z,100120.66
2023-04-28T09:48:36.486Z,100129.56
2023-04-28T09:51:06.414Z,100117.25
2023-04-28T09:53:35.168Z,100125.81
2023-04-28T09:56:07.703Z,100110.53
2023-04-28T09:58:41.012Z,100112.38
2023-04-28T10:01:11.977Z,100119.88
2023-04-28T10:03:43.371Z,100116.03
2023-04-28T10:06:11.752Z,100116.25
2023-04-28T10:08:40.757Z,100112.63
2023-04-28T10:11:08.888Z,100120.38
2023-04-28T10:13:37.068Z,100116.91
2023-04-28T10:16:08.687Z,100115.75
2023-04-28T10:18:46.047Z,100110.66
2023-04-28T10:21:19.288Z,100115.97
2023-04-28T10:24:10.326Z,100110.41
2023-04-28T10:27:05.706Z,100107.94
2023-04-28T10:29:34.835Z,100106.63
2023-04-28T10:32:23.988Z,100111.06
2023-04-28T10:35:33.866Z,100110.63
2023-04-28T10:38:15.296Z,100110.88
2023-04-28T10:40:50.016Z,100094.03
2023-04-28T10:43:26.594Z,100098.69
2023-04-28T10:45:58.161Z,100098.63
2023-04-28T10:48:37.230Z,100097.03
2023-04-28T10:51:05.243Z,100097.88
2023-04-28T10:53:47.133Z,100105.78
2023-04-28T10:56:21.835Z,100101.69
2023-04-28T10:58:51.080Z,100098.50
2023-04-28T11:01:22.742Z,100094.63
2023-04-28T11:04:02.964Z,100083.28
2023-04-28T11:06:37.079Z,100089.13
2023-04-28T11:09:21.838Z,100076.47
2023-04-28T11:12:06.397Z,100073.06
2023-04-28T11:14:41.255Z,100070.53
2023-04-28T11:17:13.808Z,100073.44
2023-04-28T11:19:51.624Z,100067.16
2023-04-28T11:22:22.481Z,100066.16
2023-04-28T11:25:02.113Z,100075.06
2023-04-28T11:27:31.744Z,100053.69
2023-04-28T11:30:00.313Z,100057.94
2023-04-28T11:32:35.536Z,100049.81
2023-04-28T11:35:10.301Z,100043.69
2023-04-28T11:37:41.970Z,100057.13
2023-04-28T11:40:14.053Z,100048.56
2023-04-28T11:42:51.546Z,100046.88
2023-04-28T11:45:19.771Z,100041.44
2023-04-28T11:47:48.024Z,100043.06
2023-04-28T11:50:16.306Z,100045.34
2023-04-28T11:52:52.997Z,100043.50
2023-04-28T11:55:24.325Z,100044.44
2023-04-28T11:58:25.571Z,100039.16
2023-04-28T12:01:14.070Z,100036.09
2023-04-28T12:03:46.372Z,100033.94
2023-04-28T12:06:21.206Z,100040.47
2023-04-28T12:08:50.294Z,100035.53
2023-04-28T12:11:20.410Z,100019.03
2023-04-28T12:14:08.307Z,100025.00
2023-04-28T12:16:44.293Z,100038.00
2023-04-28T12:19:13.246Z,100043.50
2023-04-28T12:21:42.510Z,100035.00
2023-04-28T12:24:15.774Z,100036.06
2023-04-28T12:26:46.711Z,100037.94
2023-04-28T12:29:40.517Z,100019.66
2023-04-28T12:32:11.494Z,100026.78
2023-04-28T12:34:43.311Z,100033.28
2023-04-28T12:37:12.611Z,100032.16
2023-04-28T12:39:41.846Z,100047.69
2023-04-28T12:42:12.277Z,100040.19
2023-04-28T12:44:41.122Z,100040.63
2023-04-28T12:47:11.425Z,100036.88
2023-04-28T12:49:39.820Z,100063.81
2023-04-28T12:52:08.161Z,100059.41
2023-04-28T12:54:37.172Z,100056.72
2023-04-28T12:57:06.069Z,100055.88
2023-04-28T12:59:34.205Z,100051.19
2023-04-28T13:02:09.938Z,100046.47
2023-04-28T13:04:46.429Z,100040.94
2023-04-28T13:07:15.767Z,100097.00
2023-04-28T13:09:44.703Z,100074.69
2023-04-28T13:12:12.991Z,100080.03
2023-04-28T13:14:41.176Z,100068.38
2023-04-28T13:17:10.907Z,100064.56
2023-04-28T13:19:40.378Z,100048.94
2023-04-28T13:22:09.596Z,100033.75
2023-04-28T13:24:38.618Z,100042.41
2023-04-28T13:27:10.718Z,100032.31
2023-04-28T13:29:45.800Z,100022.53
2023-04-28T13:32:16.862Z,100034.72
2023-04-28T13:34:45.514Z,100028.63
2023-04-28T13:37:13.929Z,100022.81
2023-04-28T13:39:42.190Z,100036.56
2023-04-28T13:42:10.247Z,100015.41
2023-04-28T13:44:38.408Z,100032.75
2023-04-28T13:47:09.546Z,100037.84
2023-04-28T13:49:37.875Z,100052.63
2023-04-28T13:52:05.972Z,100044.94
2023-04-28T13:54:38.028Z,100050.22
2023-04-28T13:57:06.574Z,100053.78
2023-04-28T13:59:35.017Z,100064.41
2023-04-28T14:02:03.812Z,100047.94
2023-04-28T14:04:37.284Z,100046.25
2023-04-28T14:07:10.097Z,100056.31
2023-04-28T14:09:38.093Z,100059.59
2023-04-28T14:12:06.769Z,100064.25
2023-04-28T14:14:39.713Z,100078.88
2023-04-28T14:17:09.519Z,100085.72
2023-04-28T14:19:40.404Z,100093.66
2023-04-28T14:22:10.901Z,100092.38
2023-04-28T14:24:39.261Z,100099.31
2023-04-28T14:27:07.797Z,100096.50
2023-04-28T14:29:36.072Z,100101.75
2023-04-28T14:32:23.720Z,100086.09
2023-04-28T14:34:54.182Z,100085.81
2023-04-28T14:37:22.438Z,100082.28
2023-04-28T14:39:50.470Z,100085.13
2023-04-28T14:42:18.714Z,100084.13
2023-04-28T14:44:46.985Z,100096.63
2023-04-28T14:47:15.422Z,100079.91
2023-04-28T14:49:43.471Z,100086.28
2023-04-28T14:52:11.667Z,100087.69
2023-04-28T14:54:42.673Z,100085.56
2023-04-28T14:57:11.073Z,100081.16
2023-04-28T14:59:39.394Z,100072.91
2023-04-28T15:02:08.338Z,100081.59
2023-04-28T15:04:40.863Z,100072.34
2023-04-28T15:07:09.789Z,100064.41
2023-04-28T15:09:39.553Z,100057.03
2023-04-28T15:12:08.074Z,100059.84
2023-04-28T15:14:36.978Z,100066.50
2023-04-28T15:17:05.403Z,100060.41
2023-04-28T15:19:34.899Z,100067.78
2023-04-28T15:22:03.746Z,100069.78
2023-04-28T15:24:31.947Z,100071.47
2023-04-28T15:27:00.120Z,100079.16
2023-04-28T15:29:28.882Z,100079.53
2023-04-28T15:31:57.176Z,100072.69
2023-04-28T15:34:29.106Z,100073.44
2023-04-28T15:36:56.990Z,100074.44
2023-04-28T15:39:26.004Z,100062.91
2023-04-28T15:41:57.344Z,100071.75
2023-04-28T15:44:25.555Z,100074.72
2023-04-28T15:46:53.962Z,100070.59
2023-04-28T15:49:22.697Z,100067.78
2023-04-28T15:51:50.810Z,100068.91
2023-04-28T15:54:19.493Z,100067.03
2023-04-28T15:56:48.230Z,100072.16
2023-04-28T15:59:18.707Z,100070.75
2023-04-28T16:01:47.113Z,100068.78
2023-04-28T16:04:17.308Z,100083.81
2023-04-28T16:06:45.885Z,100078.25
2023-04-28T16:09:14.442Z,100069.16
2023-04-28T16:11:45.470Z,100068.47
2023-04-28T16:14:15.668Z,100068.75
2023-04-28T16:16:46.729Z,100088.19
2023-04-28T16:19:16.683Z,100083.34
2023-04-28T16:21:45.646Z,100086.59
2023-04-28T16:24:14.687Z,100090.09
2023-04-28T16:26:42.987Z,100089.78
2023-04-28T16:29:13.531Z,100091.88
2023-04-28T16:31:42.882Z,100085.53
2023-04-28T16:34:11.157Z,100086.34
2023-04-28T16:36:40.530Z,100089.97
2023-04-28T16:39:09.985Z,100081.94
2023-04-28T16:41:38.690Z,100086.91
2023-04-28T16:44:07.025Z,100086.03
2023-04-28T16:46:35.467Z,100103.88
2023-04-28T16:49:04.141Z,100089.38
2023-04-28T16:51:35.721Z,100089.38
2023-04-28T16:54:03.978Z,100095.69
2023-04-28T16:56:33.720Z,100091.94
2023-04-28T16:59:01.839Z,100100.09
2023-04-28T17:01:31.566Z,100100.72
2023-04-28T17:03:59.794Z,100118.34
2023-04-28T17:06:32.849Z,100089.72
2023-04-28T17:09:01.273Z,100088.28
2023-04-28T17:11:29.428Z,100104.19
2023-04-28T17:13:58.530Z,100122.84
2023-04-28T17:16:33.835Z,100118.22
2023-04-28T17:19:03.202Z,100113.81
2023-04-28T17:21:31.735Z,100127.88
2023-04-28T17:24:00.194Z,100114.88
2023-04-28T17:26:29.898Z,100132.91
2023-04-28T17:28:59.271Z,100125.97
2023-04-28T17:31:28.728Z,100135.34
2023-04-28T17:33:58.148Z,100137.00
2023-04-28T17:36:29.382Z,100140.34
2023-04-28T17:38:57.510Z,100153.56
2023-04-28T17:41:26.295Z,100146.63
2023-04-28T17:43:57.384Z,100138.88
2023-04-28T17:46:30.196Z,100139.91
2023-04-28T17:49:00.558Z,100150.44
2023-04-28T17:51:30.980Z,100140.88
2023-04-28T17:53:59.665Z,100141.03
2023-04-28T17:56:28.776Z,100143.09
2023-04-28T17:58:57.507Z,100151.28
2023-04-28T18:01:26.611Z,100149.31
2023-04-28T18:03:58.049Z,100143.19
2023-04-28T18:06:29.366Z,100140.19
2023-04-28T18:08:57.887Z,100152.91
2023-04-28T18:11:28.180Z,100152.97
2023-04-28T18:13:58.793Z,100155.38
2023-04-28T18:16:27.229Z,100146.69
2023-04-28T18:18:55.593Z,100145.84
2023-04-28T18:21:23.712Z,100145.13
2023-04-28T18:23:51.743Z,100143.06
2023-04-28T18:26:21.404Z,100141.69
2023-04-28T18:28:49.504Z,100141.69
2023-04-28T18:31:17.670Z,100144.16
2023-04-28T18:33:45.712Z,100129.53
2023-04-28T18:36:16.810Z,100147.59
2023-04-28T18:38:45.162Z,100132.22
2023-04-28T18:41:15.112Z,100139.19
2023-04-28T18:43:45.072Z,100146.16
2023-04-28T18:46:13.677Z,100142.00
2023-04-28T18:48:42.747Z,100149.94
2023-04-28T18:51:11.836Z,100145.69
2023-04-28T18:53:43.779Z,100143.09
2023-04-28T18:56:11.672Z,100131.72
2023-04-28T18:58:43.198Z,100133.31
2023-04-28T19:01:18.188Z,100125.50
2023-04-28T19:03:46.755Z,100133.72
2023-04-28T19:06:15.752Z,100135.41
2023-04-28T19:08:45.357Z,100133.72
2023-04-28T19:11:14.512Z,100131.25
2023-04-28T19:13:45.017Z,100132.72
2023-04-28T19:16:16.426Z,100138.72
2023-04-28T19:18:47.873Z,100140.31
2023-04-28T19:21:16.594Z,100125.41
2023-04-28T19:23:49.504Z,100130.56
2023-04-28T19:26:19.881Z,100135.56
2023-04-28T19:28:50.739Z,100157.06
2023-04-28T19:31:21.039Z,100132.63
2023-04-28T19:33:49.454Z,100141.78
2023-04-28T19:36:18.646Z,100134.22
2023-04-28T19:38:47.216Z,100140.19
2023-04-28T19:41:15.469Z,100143.75
2023-04-28T19:43:44.077Z,100138.50
2023-04-28T19:46:13.263Z,100137.41
2023-04-28T19:48:41.796Z,100135.94
2023-04-28T19:51:11.377Z,100136.94
2023-04-28T19:53:41.329Z,100134.84
2023-04-28T19:56:10.481Z,100133.25
2023-04-28T19:58:41.755Z,100139.38
2023-04-28T20:01:10.234Z,100134.72
2023-04-28T20:03:42.005Z,100127.53
2023-04-28T20:06:16.887Z,100137.53
2023-04-28T20:08:46.091Z,100133.00
2023-04-28T20:11:14.428Z,100140.59
2023-04-28T20:13:42.586Z,100139.84
2023-04-28T20:16:11.149Z,100139.13
2023-04-28T20:18:39.184Z,100145.22
2023-04-28T20:21:07.490Z,100134.00
2023-04-28T20:23:37.107Z,100138.78
2023-04-28T20:26:05.922Z,100141.31
2023-04-28T20:28:38.993Z,100139.13
2023-04-28T20:31:10.472Z,100140.13
2023-04-28T20:33:38.928Z,100142.31
2023-04-28T20:36:07.300Z,100142.91
2023-04-28T20:38:37.874Z,100142.91
2023-04-28T20:41:08.095Z,100139.38
2023-04-28T20:43:39.609Z,100140.84
2023-04-28T20:46:14.666Z,100149.19
2023-04-28T20:48:44.688Z,100144.75
2023-04-28T20:51:12.703Z,100148.19
2023-04-28T20:53:43.663Z,100146.81
2023-04-28T20:56:11.633Z,100153.66
2023-04-28T20:58:42.820Z,100149.28
2023-04-28T21:01:11.398Z,100151.34
2023-04-28T21:03:39.893Z,100155.41
2023-04-28T21:06:08.030Z,100153.19
2023-04-28T21:08:36.975Z,100156.13
2023-04-28T21:11:12.136Z,100137.81
2023-04-28T21:13:41.129Z,100147.94
2023-04-28T21:16:29.558Z,100148.31
2023-04-28T21:19:01.356Z,100146.59
2023-04-28T21:21:30.344Z,100153.56
2023-04-28T21:23:58.481Z,100144.78
2023-04-28T21:26:28.259Z,100148.41
2023-04-28T21:28:56.968Z,100144.88
2023-04-28T21:31:27.564Z,100143.28
2023-04-28T21:33:55.897Z,100146.34
2023-04-28T21:36:27.249Z,100147.19
2023-04-28T21:38:55.199Z,100156.63
2023-04-28T21:41:23.986Z,100148.69
2023-04-28T21:43:52.931Z,100153.22
2023-04-28T21:46:21.066Z,100148.06
2023-04-28T21:48:49.561Z,100140.25
2023-04-28T21:51:17.968Z,100151.38
2023-04-28T21:53:46.077Z,100153.78
2023-04-28T21:56:16.331Z,100149.41
2023-04-28T21:58:44.417Z,100151.84
2023-04-28T22:01:17.305Z,100149.41
2023-04-28T22:03:48.174Z,100149.78
2023-04-28T22:06:18.472Z,100145.59
2023-04-28T22:08:47.041Z,100149.50
2023-04-28T22:11:15.279Z,100150.88
2023-04-28T22:13:43.563Z,100142.44
2023-04-28T22:16:13.934Z,100144.66
2023-04-28T22:18:44.428Z,100142.91
2023-04-28T22:21:13.980Z,100157.84
2023-04-28T22:23:41.946Z,100154.16
2023-04-28T22:26:10.072Z,100150.88
2023-04-28T22:28:38.153Z,100138.91
2023-04-28T22:31:06.673Z,100140.97
2023-04-28T22:33:35.152Z,100138.97
2023-04-28T22:36:03.478Z,100137.53
2023-04-28T22:38:31.644Z,100140.22
2023-04-28T22:41:02.488Z,100131.59
2023-04-28T22:43:30.696Z,100137.81
2023-04-28T22:45:58.680Z,100141.31
2023-04-28T22:48:30.117Z,100130.22
2023-04-28T22:50:58.262Z,100131.16
2023-04-28T22:53:26.239Z,100132.44
2023-04-28T22:55:57.017Z,100142.41
2023-04-28T22:58:25.402Z,100132.91
2023-04-28T23:00:54.438Z,100135.50
2023-04-28T23:03:23.165Z,100137.31
2023-04-28T23:05:51.721Z,100137.19
2023-04-28T23:08:21.278Z,100151.25
2023-04-28T23:10:49.576Z,100154.78
2023-04-28T23:13:17.827Z,100171.13
2023-04-28T23:15:47.473Z,100168.44
2023-04-28T23:18:15.745Z,100161.38
2023-04-28T23:20:43.791Z,100166.66
2023-04-28T23:23:12.275Z,100157.84
2023-04-28T23:25:43.511Z,100141.47
2023-04-28T23:28:12.261Z,100131.81
2023-04-28T23:30:45.600Z,100125.59
2023-04-28T23:33:13.967Z,100143.75
2023-04-28T23:35:43.687Z,100144.97
2023-04-28T23:38:12.991Z,100160.09
2023-04-28T23:40:41.568Z,100155.63
2023-04-28T23:43:10.026Z,100147.22
2023-04-28T23:45:38.282Z,100149.63
2023-04-28T23:48:08.418Z,100146.00
2023-04-28T23:50:36.546Z,100149.88
2023-04-28T23:53:04.813Z,100153.56
2023-04-28T23:55:33.344Z,100147.09
2023-04-28T23:58:01.742Z,100156.25
